Byhalia, MS (38611)

7:14 PM CDT on July 07, 2015 (GMT -0500)
Old Towne | | Change Station
CLOSE
Current Station
Personal Weather Station
Location: Olive Branch, MS
Elevation: 387 ft
Nearby Weather Stations

Elev 387 ft 34.95 °N, 89.83 °W | Updated 1 second ago

Mostly Cloudy
Mostly Cloudy
85.9 °F
Feels Like 97 °F
N
1.0
Wind Variable Wind from West
Gusts 3.0 mph

Today
High -- | Low -- °F
--% Chance of Precip.
Yesterday
High -- | Low -- °F
Precip. -- in
5:51 AM 8:15 PM
Waning Gibbous, 60% visible
Pressure 30.02 in
Visibility 8.0 miles
Clouds Few 4000 ft
Overcast 25000 ft
Heat Index 97 °F
Dew Point 77 °F
Humidity 74%
Rainfall 0.00 in
Snow Depth Not available.
UV 0 out of 12
Pollen 1.10 out of 12
Air Quality Not available.
Flu Activity Not available.
METAR KOLV 072350Z 19008KT 8SM FEW040 OVC250 28/26 A3002

More Conditions Fewer Conditions

Pressure 30.02 in
Visibility 8.0 miles
Clouds Few 4000 ft
Overcast 25000 ft
Heat Index 97 °F
Dew Point 77 °F
Humidity 74%
Rainfall 0.00 in
Snow Depth Not available.
UV 0 out of 12
Pollen 1.10 out of 12
Air Quality Not available.
Flu Activity Not available.
METAR KOLV 072350Z 19008KT 8SM FEW040 OVC250 28/26 A3002

More Conditions Fewer Conditions

10-Day Weather Forecast

×

Almanac

Astronomy

Jul. 07, 2015 Rise Set
Actual Time
Civil Twilight
Nautical Twilight
Astronomical Twilight
Moon
Length of Visible Light
Length of Day
Tomorrow will be .
, % of the Moon is Illuminated

Today's Extremes

State Highs State Lows

Community

WunderPhotos

Upload Photos

1,835,970 photos uploaded!

WunderBlogs® & News

Nearby

Air Quality

  Air Quality AQ Index Pollutant
Not available.

Snow Depth

Station Depth Elevation

Earthquake Activity

City Distance Mag. Time & Date
Minimum magnitude displayed is 2.5.

Coastal Water Temperatures

Place Temperature

Stations

Nearby Weather Stations

Station Location Temp. Windchill Dew Point Humidity Wind Precip. Elev Updated Type